createdAt,value
2023-01-05T09:10:10.577Z,3
2023-01-05T09:15:11.098Z,3
2023-01-05T09:20:10.888Z,2.8
2023-01-05T09:25:11.226Z,2.8
2023-01-05T09:30:10.880Z,3.1
2023-01-05T09:35:10.873Z,3.1
2023-01-05T09:40:11.135Z,2.9
2023-01-05T09:45:10.300Z,2.9
2023-01-05T09:50:10.927Z,3.6
2023-01-05T09:55:10.900Z,3.6
2023-01-05T10:00:10.437Z,3.1
2023-01-05T10:05:10.756Z,3.1
2023-01-05T10:10:10.853Z,3.6
2023-01-05T10:15:10.423Z,3.6
2023-01-05T10:20:10.601Z,2.8
2023-01-05T10:25:11.245Z,2.8
2023-01-05T10:30:10.768Z,2.7
2023-01-05T10:35:33.945Z,2.7
2023-01-05T10:40:11.155Z,2.2
2023-01-05T10:45:11.085Z,2.2
2023-01-05T10:50:11.234Z,2.2
2023-01-05T10:55:10.652Z,2.2
2023-01-05T11:00:11.197Z,2.7
2023-01-05T11:05:11.414Z,2.7
2023-01-05T11:10:10.704Z,3.7
2023-01-05T11:15:11.165Z,3.7
2023-01-05T11:20:10.557Z,2.6
2023-01-05T11:25:11.059Z,2.6
2023-01-05T11:30:11.220Z,1.8
2023-01-05T11:35:10.609Z,1.8
2023-01-05T11:40:11.298Z,1.8
2023-01-05T11:45:10.981Z,1.8
2023-01-05T11:50:11.317Z,1.8
2023-01-05T11:55:11.043Z,1.8
2023-01-05T12:00:11.214Z,1.8
2023-01-05T12:05:10.953Z,1.8
2023-01-05T12:10:10.406Z,1.8
2023-01-05T12:15:10.486Z,1.8
2023-01-05T12:20:10.622Z,1.3
2023-01-05T12:25:10.849Z,1.3
2023-01-05T12:35:10.480Z,1.8
2023-01-05T12:40:11.031Z,1.8
2023-01-05T12:45:11.358Z,1.8
2023-01-05T12:50:10.719Z,2.2
2023-01-05T12:55:11.144Z,2.2
2023-01-05T13:00:11.554Z,1.8
2023-01-05T13:05:11.143Z,1.8
2023-01-05T13:10:11.521Z,1.3
2023-01-05T13:15:10.742Z,1.3
2023-01-05T13:20:10.892Z,1.3
2023-01-05T13:25:11.190Z,1.3
2023-01-05T13:30:10.584Z,1.8
2023-01-05T13:35:11.135Z,1.8
2023-01-05T13:40:10.991Z,1.8
2023-01-05T13:45:11.369Z,1.8
2023-01-05T13:50:10.641Z,1.1
2023-01-05T13:55:14.620Z,1.1
2023-01-05T14:00:12.436Z,1.3
2023-01-05T14:05:10.871Z,1.3
2023-01-05T14:10:11.404Z,1.8
2023-01-05T14:15:10.780Z,1.8
2023-01-05T14:20:10.990Z,1.5
2023-01-05T14:25:11.398Z,1.5
2023-01-05T14:30:10.981Z,1.8
2023-01-05T14:35:11.356Z,1.8
2023-01-05T14:45:11.361Z,1.7
2023-01-05T14:50:10.568Z,1.5
2023-01-05T14:55:23.980Z,1.5
2023-01-05T15:00:10.763Z,0.7
2023-01-05T15:05:11.603Z,0.7
2023-01-05T15:10:11.353Z,0.5
2023-01-05T15:15:11.136Z,0.5
2023-01-05T15:20:10.742Z,0.9
2023-01-05T15:25:10.873Z,0.9
2023-01-05T15:30:10.612Z,0.9
2023-01-05T15:35:10.693Z,0.9
2023-01-05T15:40:11.229Z,0.6
2023-01-05T15:45:11.263Z,0.6
2023-01-05T15:50:10.744Z,0.4
2023-01-05T15:55:10.820Z,0.4
2023-01-05T16:00:10.563Z,0.4
2023-01-05T16:05:10.905Z,0.4
2023-01-05T16:10:11.356Z,0.4
2023-01-05T16:15:10.820Z,0.4
2023-01-05T16:20:11.448Z,0.3
2023-01-05T16:25:11.473Z,0.3
2023-01-05T16:30:11.153Z,0
2023-01-05T16:35:11.042Z,0
2023-01-05T16:40:11.305Z,0
2023-01-05T16:45:10.801Z,0
2023-01-05T16:50:11.289Z,0
2023-01-05T16:55:14.453Z,0
2023-01-05T17:00:11.058Z,0
2023-01-05T17:05:10.995Z,0
2023-01-05T17:10:11.152Z,0
2023-01-05T17:15:11.625Z,0
2023-01-05T17:20:11.324Z,0
2023-01-05T17:25:11.390Z,0
2023-01-05T17:30:11.343Z,0
2023-01-05T17:35:10.609Z,0
2023-01-05T17:40:11.243Z,0
2023-01-05T17:45:11.553Z,0
2023-01-05T17:50:10.864Z,0
2023-01-05T17:55:11.346Z,0
2023-01-05T18:00:11.598Z,0
2023-01-05T18:05:11.072Z,0
2023-01-05T18:10:11.353Z,0
2023-01-05T18:15:10.797Z,0
2023-01-05T18:20:11.000Z,0
2023-01-05T18:25:11.404Z,0
2023-01-05T18:30:10.711Z,0
2023-01-05T18:35:11.046Z,0
2023-01-05T18:40:11.304Z,0
2023-01-05T18:45:19.429Z,0
2023-01-05T18:50:11.199Z,0
2023-01-05T18:55:11.430Z,0
2023-01-05T19:00:10.684Z,0
2023-01-05T19:05:11.406Z,0
2023-01-05T19:10:11.627Z,0
2023-01-05T19:15:10.676Z,0
2023-01-05T19:20:11.031Z,0
2023-01-05T19:25:11.560Z,0
2023-01-05T19:30:10.697Z,0
2023-01-05T19:35:11.176Z,0
2023-01-05T19:40:11.418Z,0
2023-01-05T19:45:11.674Z,0
2023-01-05T19:50:11.095Z,0
2023-01-05T19:55:11.375Z,0
2023-01-05T20:00:11.505Z,0
2023-01-05T20:05:11.023Z,0
2023-01-05T20:10:11.279Z,0
2023-01-05T20:15:11.692Z,0
2023-01-05T20:20:11.120Z,0
2023-01-05T20:25:11.455Z,0
2023-01-05T20:30:11.626Z,0
2023-01-05T20:35:11.037Z,0
2023-01-05T20:40:11.165Z,0
2023-01-05T20:45:11.526Z,0
2023-01-05T20:50:11.016Z,0
2023-01-05T20:55:10.912Z,0
2023-01-05T21:00:11.863Z,0
2023-01-05T21:05:11.000Z,0
2023-01-05T21:10:11.263Z,0
2023-01-05T21:15:11.696Z,0
2023-01-05T21:20:10.941Z,0
2023-01-05T21:25:10.915Z,0
2023-01-05T21:30:11.340Z,0
2023-01-05T21:35:11.101Z,0
2023-01-05T21:40:11.165Z,0
2023-01-05T21:45:11.466Z,0
2023-01-05T21:50:10.860Z,0
2023-01-05T21:55:11.536Z,0
2023-01-05T22:00:11.053Z,0.4
2023-01-05T22:05:11.221Z,0.4
2023-01-05T22:10:11.533Z,0
2023-01-05T22:15:11.051Z,0
2023-01-05T22:20:11.688Z,0.1
2023-01-05T22:25:11.118Z,0.1
2023-01-05T22:30:11.487Z,0.4
2023-01-05T22:35:10.924Z,0.4
2023-01-05T22:40:11.069Z,0.4
2023-01-05T22:45:11.372Z,0.4
2023-01-05T22:50:10.801Z,0.4
2023-01-05T22:55:11.111Z,0.4
2023-01-05T23:00:11.545Z,0.4
2023-01-05T23:05:11.341Z,0.4
2023-01-05T23:10:11.731Z,0.9
2023-01-05T23:15:11.350Z,0.9
2023-01-05T23:20:11.746Z,0.9
2023-01-05T23:25:11.096Z,0.9
2023-01-05T23:30:11.494Z,0.9
2023-01-05T23:35:10.950Z,0.9
2023-01-05T23:40:11.799Z,1.3
2023-01-05T23:45:11.285Z,1.3
2023-01-05T23:50:11.473Z,0.9
2023-01-05T23:55:11.943Z,0.9
